sensor_id;sensor_type;location;lat;lon;timestamp;temperature;humidity
17080;DHT22;8655;57.106;-2.088;2023-04-19T00:01:00;18.70;49.00
17080;DHT22;8655;57.106;-2.088;2023-04-19T00:03:27;18.70;49.10
17080;DHT22;8655;57.106;-2.088;2023-04-19T00:05:54;18.70;49.00
17080;DHT22;8655;57.106;-2.088;2023-04-19T00:08:23;18.70;49.00
17080;DHT22;8655;57.106;-2.088;2023-04-19T00:10:48;18.70;49.00
17080;DHT22;8655;57.106;-2.088;2023-04-19T00:13:14;18.70;49.00
17080;DHT22;8655;57.106;-2.088;2023-04-19T00:15:40;18.70;49.00
17080;DHT22;8655;57.106;-2.088;2023-04-19T00:18:05;18.60;48.90
17080;DHT22;8655;57.106;-2.088;2023-04-19T00:20:31;18.60;48.90
17080;DHT22;8655;57.106;-2.088;2023-04-19T00:22:57;18.60;48.90
17080;DHT22;8655;57.106;-2.088;2023-04-19T00:25:24;18.60;48.90
17080;DHT22;8655;57.106;-2.088;2023-04-19T00:27:49;18.60;48.90
17080;DHT22;8655;57.106;-2.088;2023-04-19T00:30:15;18.60;48.90
17080;DHT22;8655;57.106;-2.088;2023-04-19T00:32:41;18.60;48.90
17080;DHT22;8655;57.106;-2.088;2023-04-19T00:35:07;18.60;48.90
17080;DHT22;8655;57.106;-2.088;2023-04-19T00:37:32;18.60;48.90
17080;DHT22;8655;57.106;-2.088;2023-04-19T00:39:58;18.60;49.50
17080;DHT22;8655;57.106;-2.088;2023-04-19T00:42:24;18.60;48.90
17080;DHT22;8655;57.106;-2.088;2023-04-19T00:44:49;18.60;48.90
17080;DHT22;8655;57.106;-2.088;2023-04-19T00:47:15;18.60;48.90
17080;DHT22;8655;57.106;-2.088;2023-04-19T00:49:41;18.60;48.90
17080;DHT22;8655;57.106;-2.088;2023-04-19T00:52:07;18.50;48.80
17080;DHT22;8655;57.106;-2.088;2023-04-19T00:54:33;18.50;48.80
17080;DHT22;8655;57.106;-2.088;2023-04-19T00:56:59;18.50;48.80
17080;DHT22;8655;57.106;-2.088;2023-04-19T00:59:25;18.50;48.80
17080;DHT22;8655;57.106;-2.088;2023-04-19T01:01:51;18.50;48.90
17080;DHT22;8655;57.106;-2.088;2023-04-19T01:04:17;18.50;48.90
17080;DHT22;8655;57.106;-2.088;2023-04-19T01:06:42;18.50;48.80
17080;DHT22;8655;57.106;-2.088;2023-04-19T01:09:08;18.50;48.80
17080;DHT22;8655;57.106;-2.088;2023-04-19T01:11:34;18.50;48.80
17080;DHT22;8655;57.106;-2.088;2023-04-19T01:14:00;18.50;48.80
17080;DHT22;8655;57.106;-2.088;2023-04-19T01:16:26;18.50;48.80
17080;DHT22;8655;57.106;-2.088;2023-04-19T01:18:52;18.50;48.80
17080;DHT22;8655;57.106;-2.088;2023-04-19T01:21:18;18.50;48.80
17080;DHT22;8655;57.106;-2.088;2023-04-19T01:23:44;18.50;48.80
17080;DHT22;8655;57.106;-2.088;2023-04-19T01:26:10;18.50;48.80
17080;DHT22;8655;57.106;-2.088;2023-04-19T01:28:36;18.50;48.80
17080;DHT22;8655;57.106;-2.088;2023-04-19T01:31:01;18.50;48.80
17080;DHT22;8655;57.106;-2.088;2023-04-19T01:33:28;18.40;48.70
17080;DHT22;8655;57.106;-2.088;2023-04-19T01:35:53;18.40;48.70
17080;DHT22;8655;57.106;-2.088;2023-04-19T01:38:19;18.40;48.70
17080;DHT22;8655;57.106;-2.088;2023-04-19T01:40:45;18.40;48.70
17080;DHT22;8655;57.106;-2.088;2023-04-19T01:43:12;18.40;48.70
17080;DHT22;8655;57.106;-2.088;2023-04-19T01:45:38;18.40;48.70
17080;DHT22;8655;57.106;-2.088;2023-04-19T01:48:04;18.40;48.70
17080;DHT22;8655;57.106;-2.088;2023-04-19T01:50:30;18.40;48.70
17080;DHT22;8655;57.106;-2.088;2023-04-19T01:52:57;18.40;48.70
17080;DHT22;8655;57.106;-2.088;2023-04-19T01:55:23;18.40;48.70
17080;DHT22;8655;57.106;-2.088;2023-04-19T01:57:48;18.40;48.70
17080;DHT22;8655;57.106;-2.088;2023-04-19T02:00:14;18.30;48.60
17080;DHT22;8655;57.106;-2.088;2023-04-19T02:02:42;18.30;48.60
17080;DHT22;8655;57.106;-2.088;2023-04-19T02:05:08;18.30;48.60
17080;DHT22;8655;57.106;-2.088;2023-04-19T02:07:34;18.40;48.70
17080;DHT22;8655;57.106;-2.088;2023-04-19T02:09:59;18.30;48.60
17080;DHT22;8655;57.106;-2.088;2023-04-19T02:12:26;18.30;48.60
17080;DHT22;8655;57.106;-2.088;2023-04-19T02:14:55;18.30;48.60
17080;DHT22;8655;57.106;-2.088;2023-04-19T02:17:24;18.30;48.60
17080;DHT22;8655;57.106;-2.088;2023-04-19T02:19:51;18.30;48.60
17080;DHT22;8655;57.106;-2.088;2023-04-19T02:22:17;18.30;48.60
17080;DHT22;8655;57.106;-2.088;2023-04-19T02:24:43;18.30;48.60
17080;DHT22;8655;57.106;-2.088;2023-04-19T02:27:09;18.30;48.60
17080;DHT22;8655;57.106;-2.088;2023-04-19T02:29:36;18.30;48.50
17080;DHT22;8655;57.106;-2.088;2023-04-19T02:32:02;18.20;48.50
17080;DHT22;8655;57.106;-2.088;2023-04-19T02:34:34;18.20;48.50
17080;DHT22;8655;57.106;-2.088;2023-04-19T02:37:00;18.30;48.50
17080;DHT22;8655;57.106;-2.088;2023-04-19T02:39:26;18.20;48.50
17080;DHT22;8655;57.106;-2.088;2023-04-19T02:41:52;18.20;48.50
17080;DHT22;8655;57.106;-2.088;2023-04-19T02:44:18;18.20;48.50
17080;DHT22;8655;57.106;-2.088;2023-04-19T02:46:50;18.20;48.50
17080;DHT22;8655;57.106;-2.088;2023-04-19T02:49:17;18.20;48.50
17080;DHT22;8655;57.106;-2.088;2023-04-19T02:51:43;18.20;48.50
17080;DHT22;8655;57.106;-2.088;2023-04-19T02:54:08;18.20;48.50
17080;DHT22;8655;57.106;-2.088;2023-04-19T02:56:34;18.20;48.50
17080;DHT22;8655;57.106;-2.088;2023-04-19T02:59:00;18.20;48.50
17080;DHT22;8655;57.106;-2.088;2023-04-19T03:01:26;18.20;48.50
17080;DHT22;8655;57.106;-2.088;2023-04-19T03:03:51;18.20;48.50
17080;DHT22;8655;57.106;-2.088;2023-04-19T03:06:17;18.20;48.40
17080;DHT22;8655;57.106;-2.088;2023-04-19T03:08:43;18.10;48.30
17080;DHT22;8655;57.106;-2.088;2023-04-19T03:11:10;18.10;48.30
17080;DHT22;8655;57.106;-2.088;2023-04-19T03:13:36;18.10;49.00
17080;DHT22;8655;57.106;-2.088;2023-04-19T03:16:02;18.10;48.30
17080;DHT22;8655;57.106;-2.088;2023-04-19T03:18:27;18.10;48.30
17080;DHT22;8655;57.106;-2.088;2023-04-19T03:20:54;18.10;48.30
17080;DHT22;8655;57.106;-2.088;2023-04-19T03:23:20;18.10;48.30
17080;DHT22;8655;57.106;-2.088;2023-04-19T03:25:45;18.10;48.30
17080;DHT22;8655;57.106;-2.088;2023-04-19T03:28:11;18.10;48.30
17080;DHT22;8655;57.106;-2.088;2023-04-19T03:30:37;18.10;48.30
17080;DHT22;8655;57.106;-2.088;2023-04-19T03:33:02;18.10;48.30
17080;DHT22;8655;57.106;-2.088;2023-04-19T03:35:28;18.00;48.30
17080;DHT22;8655;57.106;-2.088;2023-04-19T03:37:55;18.00;48.20
17080;DHT22;8655;57.106;-2.088;2023-04-19T03:40:20;18.00;48.30
17080;DHT22;8655;57.106;-2.088;2023-04-19T03:42:46;18.00;48.20
17080;DHT22;8655;57.106;-2.088;2023-04-19T03:45:12;18.00;48.20
17080;DHT22;8655;57.106;-2.088;2023-04-19T03:47:37;18.00;48.20
17080;DHT22;8655;57.106;-2.088;2023-04-19T03:50:03;18.00;48.20
17080;DHT22;8655;57.106;-2.088;2023-04-19T03:52:29;18.00;48.30
17080;DHT22;8655;57.106;-2.088;2023-04-19T03:54:55;18.00;48.20
17080;DHT22;8655;57.106;-2.088;2023-04-19T03:57:21;18.00;48.80
17080;DHT22;8655;57.106;-2.088;2023-04-19T03:59:47;18.00;48.20
17080;DHT22;8655;57.106;-2.088;2023-04-19T04:02:12;18.00;48.20
17080;DHT22;8655;57.106;-2.088;2023-04-19T04:04:38;18.00;48.20
17080;DHT22;8655;57.106;-2.088;2023-04-19T04:07:04;17.90;48.10
17080;DHT22;8655;57.106;-2.088;2023-04-19T04:09:30;17.90;48.10
17080;DHT22;8655;57.106;-2.088;2023-04-19T04:11:56;17.90;48.10
17080;DHT22;8655;57.106;-2.088;2023-04-19T04:14:22;17.90;48.10
17080;DHT22;8655;57.106;-2.088;2023-04-19T04:16:48;17.90;48.10
17080;DHT22;8655;57.106;-2.088;2023-04-19T04:19:14;17.90;48.10
17080;DHT22;8655;57.106;-2.088;2023-04-19T04:21:39;17.90;48.10
17080;DHT22;8655;57.106;-2.088;2023-04-19T04:24:05;17.90;48.10
17080;DHT22;8655;57.106;-2.088;2023-04-19T04:26:32;17.90;48.10
17080;DHT22;8655;57.106;-2.088;2023-04-19T04:28:59;17.90;48.10
17080;DHT22;8655;57.106;-2.088;2023-04-19T04:31:26;17.90;48.10
17080;DHT22;8655;57.106;-2.088;2023-04-19T04:33:52;17.90;48.10
17080;DHT22;8655;57.106;-2.088;2023-04-19T04:36:19;17.90;48.10
17080;DHT22;8655;57.106;-2.088;2023-04-19T04:38:45;17.90;48.10
17080;DHT22;8655;57.106;-2.088;2023-04-19T04:41:10;17.80;48.00
17080;DHT22;8655;57.106;-2.088;2023-04-19T04:43:36;17.80;48.00
17080;DHT22;8655;57.106;-2.088;2023-04-19T04:46:03;17.80;48.00
17080;DHT22;8655;57.106;-2.088;2023-04-19T04:48:28;17.80;48.00
17080;DHT22;8655;57.106;-2.088;2023-04-19T04:50:56;17.80;48.00
17080;DHT22;8655;57.106;-2.088;2023-04-19T04:53:21;17.80;48.00
17080;DHT22;8655;57.106;-2.088;2023-04-19T04:55:48;17.80;48.00
17080;DHT22;8655;57.106;-2.088;2023-04-19T04:58:13;17.80;48.00
17080;DHT22;8655;57.106;-2.088;2023-04-19T05:00:39;17.80;48.00
17080;DHT22;8655;57.106;-2.088;2023-04-19T05:03:05;17.80;48.00
17080;DHT22;8655;57.106;-2.088;2023-04-19T05:05:30;17.80;48.00
17080;DHT22;8655;57.106;-2.088;2023-04-19T05:07:56;17.80;48.00
17080;DHT22;8655;57.106;-2.088;2023-04-19T05:10:22;17.80;48.00
17080;DHT22;8655;57.106;-2.088;2023-04-19T05:12:47;17.70;48.10
17080;DHT22;8655;57.106;-2.088;2023-04-19T05:15:13;17.70;47.90
17080;DHT22;8655;57.106;-2.088;2023-04-19T05:17:39;17.70;47.90
17080;DHT22;8655;57.106;-2.088;2023-04-19T05:20:05;17.70;47.90
17080;DHT22;8655;57.106;-2.088;2023-04-19T05:22:31;17.70;47.90
17080;DHT22;8655;57.106;-2.088;2023-04-19T05:24:56;17.70;47.90
17080;DHT22;8655;57.106;-2.088;2023-04-19T05:27:22;17.70;47.90
17080;DHT22;8655;57.106;-2.088;2023-04-19T05:29:47;17.70;47.90
17080;DHT22;8655;57.106;-2.088;2023-04-19T05:32:15;17.70;47.90
17080;DHT22;8655;57.106;-2.088;2023-04-19T05:34:41;17.60;47.80
17080;DHT22;8655;57.106;-2.088;2023-04-19T05:37:07;17.60;47.80
17080;DHT22;8655;57.106;-2.088;2023-04-19T05:39:32;17.60;47.80
17080;DHT22;8655;57.106;-2.088;2023-04-19T05:41:58;17.60;47.80
17080;DHT22;8655;57.106;-2.088;2023-04-19T05:44:24;17.60;47.80
17080;DHT22;8655;57.106;-2.088;2023-04-19T05:46:50;17.70;47.90
17080;DHT22;8655;57.106;-2.088;2023-04-19T05:49:15;17.60;47.70
17080;DHT22;8655;57.106;-2.088;2023-04-19T05:51:41;17.60;47.80
17080;DHT22;8655;57.106;-2.088;2023-04-19T05:54:07;17.60;47.80
17080;DHT22;8655;57.106;-2.088;2023-04-19T05:56:37;17.60;47.80
17080;DHT22;8655;57.106;-2.088;2023-04-19T05:59:03;17.60;47.80
17080;DHT22;8655;57.106;-2.088;2023-04-19T06:01:28;17.60;47.80
17080;DHT22;8655;57.106;-2.088;2023-04-19T06:03:54;17.60;47.80
17080;DHT22;8655;57.106;-2.088;2023-04-19T06:06:23;17.60;47.80
17080;DHT22;8655;57.106;-2.088;2023-04-19T06:08:49;17.60;47.90
17080;DHT22;8655;57.106;-2.088;2023-04-19T06:11:15;17.60;47.90
17080;DHT22;8655;57.106;-2.088;2023-04-19T06:13:41;17.60;47.90
17080;DHT22;8655;57.106;-2.088;2023-04-19T06:16:08;17.60;47.80
17080;DHT22;8655;57.106;-2.088;2023-04-19T06:18:33;17.70;47.90
17080;DHT22;8655;57.106;-2.088;2023-04-19T06:20:59;17.70;48.50
17080;DHT22;8655;57.106;-2.088;2023-04-19T06:23:24;17.80;47.90
17080;DHT22;8655;57.106;-2.088;2023-04-19T06:25:51;17.80;47.90
17080;DHT22;8655;57.106;-2.088;2023-04-19T06:28:17;17.90;48.00
17080;DHT22;8655;57.106;-2.088;2023-04-19T06:30:44;17.90;48.00
17080;DHT22;8655;57.106;-2.088;2023-04-19T06:33:09;17.90;48.00
17080;DHT22;8655;57.106;-2.088;2023-04-19T06:35:35;18.00;48.00
17080;DHT22;8655;57.106;-2.088;2023-04-19T06:38:01;18.00;48.00
17080;DHT22;8655;57.106;-2.088;2023-04-19T06:40:27;18.00;48.00
17080;DHT22;8655;57.106;-2.088;2023-04-19T06:42:53;18.10;48.00
17080;DHT22;8655;57.106;-2.088;2023-04-19T06:45:20;18.10;48.00
17080;DHT22;8655;57.106;-2.088;2023-04-19T06:47:45;18.20;48.00
17080;DHT22;8655;57.106;-2.088;2023-04-19T06:50:11;18.20;48.00
17080;DHT22;8655;57.106;-2.088;2023-04-19T06:52:37;18.30;48.10
17080;DHT22;8655;57.106;-2.088;2023-04-19T06:55:06;18.30;48.00
17080;DHT22;8655;57.106;-2.088;2023-04-19T06:57:32;18.40;48.10
17080;DHT22;8655;57.106;-2.088;2023-04-19T06:59:58;18.40;48.10
17080;DHT22;8655;57.106;-2.088;2023-04-19T07:02:24;18.50;48.10
17080;DHT22;8655;57.106;-2.088;2023-04-19T07:04:49;18.50;48.10
17080;DHT22;8655;57.106;-2.088;2023-04-19T07:07:15;18.60;48.20
17080;DHT22;8655;57.106;-2.088;2023-04-19T07:09:42;18.60;48.10
17080;DHT22;8655;57.106;-2.088;2023-04-19T07:12:07;18.60;48.10
17080;DHT22;8655;57.106;-2.088;2023-04-19T07:14:33;18.70;48.20
17080;DHT22;8655;57.106;-2.088;2023-04-19T07:16:59;18.70;48.20
17080;DHT22;8655;57.106;-2.088;2023-04-19T07:19:25;18.80;48.30
17080;DHT22;8655;57.106;-2.088;2023-04-19T07:21:51;18.80;48.20
17080;DHT22;8655;57.106;-2.088;2023-04-19T07:24:16;18.90;48.30
17080;DHT22;8655;57.106;-2.088;2023-04-19T07:26:42;18.90;48.30
17080;DHT22;8655;57.106;-2.088;2023-04-19T07:29:08;18.90;48.30
17080;DHT22;8655;57.106;-2.088;2023-04-19T07:31:34;19.00;48.30
17080;DHT22;8655;57.106;-2.088;2023-04-19T07:34:00;19.00;48.30
17080;DHT22;8655;57.106;-2.088;2023-04-19T07:36:25;19.00;48.30
17080;DHT22;8655;57.106;-2.088;2023-04-19T07:38:52;19.00;48.30
17080;DHT22;8655;57.106;-2.088;2023-04-19T07:41:17;19.00;48.30
17080;DHT22;8655;57.106;-2.088;2023-04-19T07:43:43;19.10;48.30
17080;DHT22;8655;57.106;-2.088;2023-04-19T07:46:13;19.10;48.30
17080;DHT22;8655;57.106;-2.088;2023-04-19T07:48:40;19.10;48.30
17080;DHT22;8655;57.106;-2.088;2023-04-19T07:51:14;19.10;48.30
17080;DHT22;8655;57.106;-2.088;2023-04-19T07:53:43;19.10;48.30
17080;DHT22;8655;57.106;-2.088;2023-04-19T07:56:10;19.10;48.30
17080;DHT22;8655;57.106;-2.088;2023-04-19T07:58:36;19.10;48.30
17080;DHT22;8655;57.106;-2.088;2023-04-19T08:01:03;19.10;48.30
17080;DHT22;8655;57.106;-2.088;2023-04-19T08:03:30;19.10;48.30
17080;DHT22;8655;57.106;-2.088;2023-04-19T08:05:56;19.10;48.30
17080;DHT22;8655;57.106;-2.088;2023-04-19T08:08:22;19.10;48.30
17080;DHT22;8655;57.106;-2.088;2023-04-19T08:10:49;19.20;48.40
17080;DHT22;8655;57.106;-2.088;2023-04-19T08:13:15;19.10;48.40
17080;DHT22;8655;57.106;-2.088;2023-04-19T08:15:41;19.10;48.30
17080;DHT22;8655;57.106;-2.088;2023-04-19T08:18:07;19.10;48.40
17080;DHT22;8655;57.106;-2.088;2023-04-19T08:20:32;19.10;48.40
17080;DHT22;8655;57.106;-2.088;2023-04-19T08:22:59;19.00;48.40
17080;DHT22;8655;57.106;-2.088;2023-04-19T08:25:24;19.10;48.40
17080;DHT22;8655;57.106;-2.088;2023-04-19T08:27:53;19.00;48.30
17080;DHT22;8655;57.106;-2.088;2023-04-19T08:30:19;19.00;48.30
17080;DHT22;8655;57.106;-2.088;2023-04-19T08:32:45;19.00;48.30
17080;DHT22;8655;57.106;-2.088;2023-04-19T08:35:10;19.00;48.30
17080;DHT22;8655;57.106;-2.088;2023-04-19T08:37:36;19.00;48.40
17080;DHT22;8655;57.106;-2.088;2023-04-19T08:40:02;19.00;48.40
17080;DHT22;8655;57.106;-2.088;2023-04-19T08:42:30;19.00;48.40
17080;DHT22;8655;57.106;-2.088;2023-04-19T08:44:56;19.00;48.40
17080;DHT22;8655;57.106;-2.088;2023-04-19T08:47:25;19.00;48.40
17080;DHT22;8655;57.106;-2.088;2023-04-19T08:49:54;19.00;48.40
17080;DHT22;8655;57.106;-2.088;2023-04-19T08:52:20;19.00;48.40
17080;DHT22;8655;57.106;-2.088;2023-04-19T08:54:47;19.00;48.50
17080;DHT22;8655;57.106;-2.088;2023-04-19T08:57:13;18.90;48.40
17080;DHT22;8655;57.106;-2.088;2023-04-19T08:59:39;18.90;48.40
17080;DHT22;8655;57.106;-2.088;2023-04-19T09:02:05;18.90;48.40
17080;DHT22;8655;57.106;-2.088;2023-04-19T09:04:31;18.90;48.40
17080;DHT22;8655;57.106;-2.088;2023-04-19T09:06:57;18.90;48.40
17080;DHT22;8655;57.106;-2.088;2023-04-19T09:09:24;18.90;48.40
17080;DHT22;8655;57.106;-2.088;2023-04-19T09:11:50;18.90;48.40
17080;DHT22;8655;57.106;-2.088;2023-04-19T09:14:18;18.90;48.40
17080;DHT22;8655;57.106;-2.088;2023-04-19T09:16:45;18.90;48.40
17080;DHT22;8655;57.106;-2.088;2023-04-19T09:19:10;18.90;48.40
17080;DHT22;8655;57.106;-2.088;2023-04-19T09:21:41;18.90;48.40
17080;DHT22;8655;57.106;-2.088;2023-04-19T09:24:07;18.80;48.30
17080;DHT22;8655;57.106;-2.088;2023-04-19T09:26:33;18.80;48.30
17080;DHT22;8655;57.106;-2.088;2023-04-19T09:29:04;18.80;48.30
17080;DHT22;8655;57.106;-2.088;2023-04-19T09:31:34;18.80;48.30
17080;DHT22;8655;57.106;-2.088;2023-04-19T09:34:17;18.80;48.30
17080;DHT22;8655;57.106;-2.088;2023-04-19T09:36:43;18.80;48.30
17080;DHT22;8655;57.106;-2.088;2023-04-19T09:39:09;18.80;48.30
17080;DHT22;8655;57.106;-2.088;2023-04-19T09:41:50;18.80;48.30
17080;DHT22;8655;57.106;-2.088;2023-04-19T09:44:16;18.80;48.30
17080;DHT22;8655;57.106;-2.088;2023-04-19T09:46:43;18.80;48.30
17080;DHT22;8655;57.106;-2.088;2023-04-19T09:49:21;18.80;48.40
17080;DHT22;8655;57.106;-2.088;2023-04-19T09:51:50;18.80;48.40
17080;DHT22;8655;57.106;-2.088;2023-04-19T09:54:17;18.80;48.40
17080;DHT22;8655;57.106;-2.088;2023-04-19T09:56:44;18.80;48.40
17080;DHT22;8655;57.106;-2.088;2023-04-19T09:59:10;18.80;48.40
17080;DHT22;8655;57.106;-2.088;2023-04-19T10:04:09;18.80;48.40
17080;DHT22;8655;57.106;-2.088;2023-04-19T10:06:38;18.70;48.30
17080;DHT22;8655;57.106;-2.088;2023-04-19T10:09:04;18.70;48.30
17080;DHT22;8655;57.106;-2.088;2023-04-19T10:11:35;18.70;48.30
17080;DHT22;8655;57.106;-2.088;2023-04-19T10:14:08;18.70;48.30
17080;DHT22;8655;57.106;-2.088;2023-04-19T10:16:35;18.70;48.30
17080;DHT22;8655;57.106;-2.088;2023-04-19T10:19:10;18.70;48.30
17080;DHT22;8655;57.106;-2.088;2023-04-19T10:21:37;18.70;48.30
17080;DHT22;8655;57.106;-2.088;2023-04-19T10:24:03;18.70;48.30
17080;DHT22;8655;57.106;-2.088;2023-04-19T10:26:30;18.70;48.30
17080;DHT22;8655;57.106;-2.088;2023-04-19T10:29:17;18.70;48.30
17080;DHT22;8655;57.106;-2.088;2023-04-19T10:32:04;18.70;48.30
17080;DHT22;8655;57.106;-2.088;2023-04-19T10:34:37;18.70;48.30
17080;DHT22;8655;57.106;-2.088;2023-04-19T10:37:03;18.70;48.30
17080;DHT22;8655;57.106;-2.088;2023-04-19T10:39:40;18.80;48.40
17080;DHT22;8655;57.106;-2.088;2023-04-19T10:42:06;18.70;48.30
17080;DHT22;8655;57.106;-2.088;2023-04-19T10:44:32;18.70;48.30
17080;DHT22;8655;57.106;-2.088;2023-04-19T10:46:58;18.70;48.30
17080;DHT22;8655;57.106;-2.088;2023-04-19T10:49:27;18.70;48.30
17080;DHT22;8655;57.106;-2.088;2023-04-19T10:51:53;18.70;48.30
17080;DHT22;8655;57.106;-2.088;2023-04-19T10:54:29;18.70;48.30
17080;DHT22;8655;57.106;-2.088;2023-04-19T10:59:22;18.70;48.30
17080;DHT22;8655;57.106;-2.088;2023-04-19T11:01:50;18.70;48.30
17080;DHT22;8655;57.106;-2.088;2023-04-19T11:11:52;18.70;48.30
17080;DHT22;8655;57.106;-2.088;2023-04-19T11:14:20;18.70;48.40
17080;DHT22;8655;57.106;-2.088;2023-04-19T11:16:46;18.70;48.40
17080;DHT22;8655;57.106;-2.088;2023-04-19T11:19:14;18.70;48.40
17080;DHT22;8655;57.106;-2.088;2023-04-19T11:21:40;18.70;48.40
17080;DHT22;8655;57.106;-2.088;2023-04-19T11:24:09;18.70;48.40
17080;DHT22;8655;57.106;-2.088;2023-04-19T11:26:35;18.70;48.30
17080;DHT22;8655;57.106;-2.088;2023-04-19T11:29:01;18.70;48.40
17080;DHT22;8655;57.106;-2.088;2023-04-19T11:31:27;18.70;48.30
17080;DHT22;8655;57.106;-2.088;2023-04-19T11:33:53;18.70;48.30
17080;DHT22;8655;57.106;-2.088;2023-04-19T11:36:19;18.70;48.40
17080;DHT22;8655;57.106;-2.088;2023-04-19T11:38:48;18.70;48.40
17080;DHT22;8655;57.106;-2.088;2023-04-19T11:41:13;18.70;48.40
17080;DHT22;8655;57.106;-2.088;2023-04-19T11:43:40;18.70;48.40
17080;DHT22;8655;57.106;-2.088;2023-04-19T11:46:09;18.70;48.40
17080;DHT22;8655;57.106;-2.088;2023-04-19T11:48:48;18.70;48.40
17080;DHT22;8655;57.106;-2.088;2023-04-19T11:51:14;18.70;48.30
17080;DHT22;8655;57.106;-2.088;2023-04-19T11:53:40;18.70;48.30
17080;DHT22;8655;57.106;-2.088;2023-04-19T11:56:07;18.70;48.30
17080;DHT22;8655;57.106;-2.088;2023-04-19T11:58:44;18.70;48.30
17080;DHT22;8655;57.106;-2.088;2023-04-19T12:01:14;18.70;48.30
17080;DHT22;8655;57.106;-2.088;2023-04-19T12:03:54;18.70;48.30
17080;DHT22;8655;57.106;-2.088;2023-04-19T12:06:30;18.70;48.40
17080;DHT22;8655;57.106;-2.088;2023-04-19T12:08:58;18.70;48.40
17080;DHT22;8655;57.106;-2.088;2023-04-19T12:11:37;18.70;48.40
17080;DHT22;8655;57.106;-2.088;2023-04-19T12:14:12;18.80;48.50
17080;DHT22;8655;57.106;-2.088;2023-04-19T12:16:38;18.80;48.50
17080;DHT22;8655;57.106;-2.088;2023-04-19T12:19:14;18.80;48.40
17080;DHT22;8655;57.106;-2.088;2023-04-19T12:21:42;18.80;48.40
17080;DHT22;8655;57.106;-2.088;2023-04-19T12:24:08;18.80;48.50
17080;DHT22;8655;57.106;-2.088;2023-04-19T12:26:34;18.80;48.40
17080;DHT22;8655;57.106;-2.088;2023-04-19T12:29:01;18.80;48.50
17080;DHT22;8655;57.106;-2.088;2023-04-19T12:31:27;18.80;48.50
17080;DHT22;8655;57.106;-2.088;2023-04-19T12:33:56;18.80;48.50
17080;DHT22;8655;57.106;-2.088;2023-04-19T12:36:22;18.80;48.50
17080;DHT22;8655;57.106;-2.088;2023-04-19T12:38:47;18.80;48.50
17080;DHT22;8655;57.106;-2.088;2023-04-19T12:41:13;18.80;48.40
17080;DHT22;8655;57.106;-2.088;2023-04-19T12:43:39;18.80;48.40
17080;DHT22;8655;57.106;-2.088;2023-04-19T12:46:05;18.80;48.40
17080;DHT22;8655;57.106;-2.088;2023-04-19T12:48:31;18.80;48.50
17080;DHT22;8655;57.106;-2.088;2023-04-19T12:50:56;18.80;48.40
17080;DHT22;8655;57.106;-2.088;2023-04-19T12:53:22;18.80;48.40
17080;DHT22;8655;57.106;-2.088;2023-04-19T12:55:49;18.80;48.40
17080;DHT22;8655;57.106;-2.088;2023-04-19T12:58:16;18.80;48.50
17080;DHT22;8655;57.106;-2.088;2023-04-19T13:00:42;18.80;48.40
17080;DHT22;8655;57.106;-2.088;2023-04-19T13:03:08;18.80;48.40
17080;DHT22;8655;57.106;-2.088;2023-04-19T13:05:34;18.80;49.00
17080;DHT22;8655;57.106;-2.088;2023-04-19T13:07:59;18.80;48.40
17080;DHT22;8655;57.106;-2.088;2023-04-19T13:10:25;18.80;48.40
17080;DHT22;8655;57.106;-2.088;2023-04-19T13:12:51;18.80;48.40
17080;DHT22;8655;57.106;-2.088;2023-04-19T13:15:16;18.80;48.40
17080;DHT22;8655;57.106;-2.088;2023-04-19T13:17:42;18.90;48.50
17080;DHT22;8655;57.106;-2.088;2023-04-19T13:20:08;18.90;48.50
17080;DHT22;8655;57.106;-2.088;2023-04-19T13:22:34;18.90;48.50
17080;DHT22;8655;57.106;-2.088;2023-04-19T13:25:00;18.90;48.50
17080;DHT22;8655;57.106;-2.088;2023-04-19T13:27:25;18.90;48.50
17080;DHT22;8655;57.106;-2.088;2023-04-19T13:29:53;18.90;48.50
17080;DHT22;8655;57.106;-2.088;2023-04-19T13:32:20;18.90;48.50
17080;DHT22;8655;57.106;-2.088;2023-04-19T13:34:46;18.90;48.50
17080;DHT22;8655;57.106;-2.088;2023-04-19T13:37:11;18.90;48.50
17080;DHT22;8655;57.106;-2.088;2023-04-19T13:39:37;18.90;48.50
17080;DHT22;8655;57.106;-2.088;2023-04-19T13:42:04;18.90;48.50
17080;DHT22;8655;57.106;-2.088;2023-04-19T13:44:29;18.90;48.50
17080;DHT22;8655;57.106;-2.088;2023-04-19T13:46:55;18.90;48.40
17080;DHT22;8655;57.106;-2.088;2023-04-19T13:49:21;18.90;48.50
17080;DHT22;8655;57.106;-2.088;2023-04-19T13:51:46;18.90;48.50
17080;DHT22;8655;57.106;-2.088;2023-04-19T13:54:12;18.90;49.00
17080;DHT22;8655;57.106;-2.088;2023-04-19T13:56:38;18.90;48.50
17080;DHT22;8655;57.106;-2.088;2023-04-19T13:59:03;18.90;48.40
17080;DHT22;8655;57.106;-2.088;2023-04-19T14:01:30;18.90;48.40
17080;DHT22;8655;57.106;-2.088;2023-04-19T14:03:56;18.90;48.40
17080;DHT22;8655;57.106;-2.088;2023-04-19T14:06:21;18.90;48.40
17080;DHT22;8655;57.106;-2.088;2023-04-19T14:08:47;18.90;48.40
17080;DHT22;8655;57.106;-2.088;2023-04-19T14:11:13;18.90;48.40
17080;DHT22;8655;57.106;-2.088;2023-04-19T14:13:38;18.90;48.40
17080;DHT22;8655;57.106;-2.088;2023-04-19T14:16:04;18.90;48.40
17080;DHT22;8655;57.106;-2.088;2023-04-19T14:18:30;18.90;49.00
17080;DHT22;8655;57.106;-2.088;2023-04-19T14:20:56;19.00;48.50
17080;DHT22;8655;57.106;-2.088;2023-04-19T14:23:21;18.90;48.40
17080;DHT22;8655;57.106;-2.088;2023-04-19T14:25:47;19.00;48.50
17080;DHT22;8655;57.106;-2.088;2023-04-19T14:28:13;19.00;48.50
17080;DHT22;8655;57.106;-2.088;2023-04-19T14:30:39;19.00;48.50
17080;DHT22;8655;57.106;-2.088;2023-04-19T14:33:04;19.00;48.50
17080;DHT22;8655;57.106;-2.088;2023-04-19T14:35:30;19.00;48.50
17080;DHT22;8655;57.106;-2.088;2023-04-19T14:37:56;19.00;48.50
17080;DHT22;8655;57.106;-2.088;2023-04-19T14:40:22;19.00;48.50
17080;DHT22;8655;57.106;-2.088;2023-04-19T14:42:48;19.00;48.50
17080;DHT22;8655;57.106;-2.088;2023-04-19T14:45:14;19.00;48.50
17080;DHT22;8655;57.106;-2.088;2023-04-19T14:47:39;19.00;48.50
17080;DHT22;8655;57.106;-2.088;2023-04-19T14:50:05;19.00;48.50
17080;DHT22;8655;57.106;-2.088;2023-04-19T14:52:31;19.00;48.50
17080;DHT22;8655;57.106;-2.088;2023-04-19T14:54:57;19.00;48.40
17080;DHT22;8655;57.106;-2.088;2023-04-19T14:57:25;19.00;48.50
17080;DHT22;8655;57.106;-2.088;2023-04-19T14:59:55;19.00;48.50
17080;DHT22;8655;57.106;-2.088;2023-04-19T15:02:25;19.00;48.40
17080;DHT22;8655;57.106;-2.088;2023-04-19T15:04:52;19.00;48.50
17080;DHT22;8655;57.106;-2.088;2023-04-19T15:07:18;19.00;48.40
17080;DHT22;8655;57.106;-2.088;2023-04-19T15:09:43;19.00;48.40
17080;DHT22;8655;57.106;-2.088;2023-04-19T15:12:09;19.00;48.40
17080;DHT22;8655;57.106;-2.088;2023-04-19T15:14:35;19.00;48.40
17080;DHT22;8655;57.106;-2.088;2023-04-19T15:17:01;19.00;48.40
17080;DHT22;8655;57.106;-2.088;2023-04-19T15:19:27;19.00;48.40
17080;DHT22;8655;57.106;-2.088;2023-04-19T15:21:54;19.00;48.40
17080;DHT22;8655;57.106;-2.088;2023-04-19T15:24:19;19.00;48.40
17080;DHT22;8655;57.106;-2.088;2023-04-19T15:26:45;19.00;48.40
17080;DHT22;8655;57.106;-2.088;2023-04-19T15:29:11;19.00;48.40
17080;DHT22;8655;57.106;-2.088;2023-04-19T15:31:36;19.00;48.40
17080;DHT22;8655;57.106;-2.088;2023-04-19T15:34:02;19.00;48.40
17080;DHT22;8655;57.106;-2.088;2023-04-19T15:36:28;19.00;48.40
17080;DHT22;8655;57.106;-2.088;2023-04-19T15:38:54;19.00;48.40